Terminal Aerodrome Forecast
Issued by NWS Green Bay, WI

Home | Current Version | Previous Version | Graphics & Text | Print | Product List | Glossary On
Versions: 1 2 3 4 5 6 7 8 9 10 11 12 13 14 15 16 17 18 19 20 21 22 23 24 25 26 27 28 29 30 31 32 33
000
FTUS43 KGRB 232300
TAFGRB
TAF
KGRB 232325Z 2400/2424 23011KT P6SM SCT040 BKN060
     FM240400 25007KT P6SM SCT025 BKN040
      TEMPO 2404/2407 BKN025
     FM240700 28006KT 6SM BR SCT018 BKN025
     FM241500 27007KT P6SM SCT020 BKN028=

USA.gov is the U.S. government's official web portal to all federal, state and local government web resources and services.